Terminal Aerodrome Forecast
Issued by NWS

Current Version | Previous Version | Text Only | Print | Product List | Glossary Off
Versions: 1 2 3 4 5 6 7 8 9 10 11 12

481
FTUS44 KSJT 200524
TAFBBD
TAF
KBBD 200524Z 2006/2106 22008KT P6SM SKC
     FM201700 25015KT P6SM SKC
      AMD NOT SKED=

USA.gov is the U.S. government's official web portal to all federal, state and local government web resources and services.